Terminal Aerodrome Forecast
Issued by NWS

Home | Current Version | Previous Version | Text Only | Print | Product List | Glossary On
Versions: 1 2 3 4 5 6 7 8 9 10 11 12 13 14
000
FTUS44 KCRP 280520
TAFALI
TAF
KALI 280520Z 2806/2906 12007KT 6SM BR SCT007 BKN025
      TEMPO 2808/2812 4SM BR BKN008 OVC015
     FM281400 16013KT P6SM SCT015 BKN025
     FM281700 14015G20KT P6SM BKN040
     FM290100 13010KT P6SM SCT012 BKN028=

USA.gov is the U.S. government's official web portal to all federal, state and local government web resources and services.